Time;durP1;ratioP1;P1;durP2;ratioP2;P2;SDS_P1;SDS_P2;PMS_P1;PMS_P2;Temp;Humidity;BMP_temperature;BMP_pressure;BME280_temperature;BME280_humidity;BME280_pressure;Samples;Min_cycle;Max_cycle;Signal;HPM_P1;HPM_P2
2022/08/22 00:01:07;;;;;;;0.10;0.10;;;24.20;66.90;;;;;;4981427;28;20054;-31
2022/08/22 00:03:57;;;;;;;0.10;0.10;;;24.10;65.90;;;;;;4977404;28;20045;-28
2022/08/22 00:06:30;;;;;;;0.15;0.13;;;24.20;65.80;;;;;;4978009;28;20611;-29
2022/08/22 00:09:15;;;;;;;;;;;24.20;65.80;;;;;;4978957;28;20046;-27
2022/08/22 00:11:54;;;;;;;0.20;0.10;;;24.20;65.80;;;;;;4976040;28;19916;-28
2022/08/22 00:14:34;;;;;;;0.30;0.20;;;24.20;66.00;;;;;;4945068;28;20038;-29
2022/08/22 00:17:18;;;;;;;0.15;0.10;;;24.10;65.90;;;;;;4977228;28;20058;-31
2022/08/22 00:20:08;;;;;;;0.00;0.00;;;24.00;66.00;;;;;;5036190;28;20025;-27
2022/08/22 00:22:52;;;;;;;0.30;0.10;;;24.10;66.00;;;;;;5037501;28;20014;-26
2022/08/22 00:25:46;;;;;;;0.10;0.10;;;24.10;65.80;;;;;;5034012;28;20034;-26
2022/08/22 00:28:43;;;;;;;0.15;0.15;;;24.10;65.90;;;;;;5035355;28;20073;-26
2022/08/22 00:31:21;;;;;;;0.10;0.10;;;24.10;65.90;;;;;;5022798;28;20041;-27
2022/08/22 00:34:15;;;;;;;0.20;0.20;;;24.10;66.20;;;;;;5039328;28;20069;-30
2022/08/22 00:37:01;;;;;;;0.50;0.28;;;24.10;65.80;;;;;;5017247;28;20036;-29
2022/08/22 00:39:50;;;;;;;0.10;0.10;;;24.10;66.10;;;;;;5022104;28;20132;-29
2022/08/22 00:42:45;;;;;;;0.05;0.05;;;24.10;66.00;;;;;;5039130;28;20394;-28
2022/08/22 00:45:34;;;;;;;0.10;0.10;;;24.00;66.20;;;;;;4961642;28;20581;-27
2022/08/22 00:48:24;;;;;;;0.63;0.20;;;24.10;66.20;;;;;;4962618;28;20053;-29
2022/08/22 00:51:26;;;;;;;0.00;0.00;;;24.10;66.10;;;;;;4959226;28;20046;-28
2022/08/22 00:53:58;;;;;;;0.10;0.10;;;24.10;65.90;;;;;;4961453;28;20026;-27
2022/08/22 00:56:49;;;;;;;0.10;0.10;;;24.00;66.10;;;;;;4938052;28;20074;-25
2022/08/22 00:59:30;;;;;;;0.13;0.13;;;24.10;66.10;;;;;;4943209;28;20067;-27
2022/08/22 01:02:17;;;;;;;0.20;0.20;;;24.00;66.00;;;;;;4960597;28;20035;-31
2022/08/22 01:04:47;;;;;;;0.20;0.10;;;24.00;66.10;;;;;;4959195;28;20050;-27
2022/08/22 01:07:32;;;;;;;0.10;0.10;;;24.00;66.30;;;;;;4945606;28;20040;-27
2022/08/22 01:10:13;;;;;;;0.10;0.10;;;24.00;66.30;;;;;;4960613;28;20047;-28
2022/08/22 01:13:02;;;;;;;0.05;0.05;;;24.00;66.30;;;;;;4960217;28;20086;-27
2022/08/22 01:15:30;;;;;;;0.10;0.10;;;24.00;66.30;;;;;;4944973;28;20078;-26
2022/08/22 01:18:15;;;;;;;0.10;0.10;;;24.00;66.20;;;;;;4945774;28;20038;-27
2022/08/22 01:21:00;;;;;;;0.10;0.10;;;24.10;66.10;;;;;;4958929;28;20070;-28
2022/08/22 01:23:50;;;;;;;0.20;0.17;;;24.10;66.10;;;;;;5039658;28;20057;-27
2022/08/22 01:26:35;;;;;;;1.42;0.10;;;24.00;66.30;;;;;;5042493;28;20024;-27
2022/08/22 01:29:13;;;;;;;0.10;0.10;;;24.00;67.00;;;;;;5041469;28;20039;-28
2022/08/22 01:31:57;;;;;;;0.20;0.10;;;24.00;66.10;;;;;;5042612;28;20108;-29
2022/08/22 01:34:35;;;;;;;0.60;0.20;;;24.00;66.20;;;;;;5039457;28;20028;-32
2022/08/22 01:37:25;;;;;;;0.10;0.10;;;24.00;66.10;;;;;;5043634;28;20129;-26
2022/08/22 01:39:59;;;;;;;0.10;0.10;;;24.00;66.10;;;;;;5043414;28;20045;-26
2022/08/22 01:42:47;;;;;;;0.10;0.10;;;24.00;66.10;;;;;;5038342;28;20033;-32
2022/08/22 01:45:12;;;;;;;0.15;0.10;;;24.00;66.40;;;;;;5035747;28;20021;-29
2022/08/22 01:47:54;;;;;;;0.15;0.15;;;24.00;66.20;;;;;;4688771;28;9999761;-27
2022/08/22 01:50:19;;;;;;;0.10;0.10;;;24.00;66.10;;;;;;5019863;28;20034;-28
2022/08/22 01:52:49;;;;;;;0.10;0.10;;;24.00;66.10;;;;;;5041060;28;20028;-27
2022/08/22 01:55:25;;;;;;;0.10;0.10;;;24.00;65.90;;;;;;5041619;28;20021;-28
2022/08/22 01:57:52;;;;;;;0.20;0.20;;;24.00;65.90;;;;;;5044474;28;20028;-29
2022/08/22 02:00:18;;;;;;;0.10;0.10;;;24.00;65.80;;;;;;5030004;28;20087;-27
2022/08/22 02:02:50;;;;;;;0.10;0.10;;;24.10;65.60;;;;;;5028506;28;20020;-26
2022/08/22 02:05:16;;;;;;;0.13;0.10;;;24.10;65.50;;;;;;5028598;28;20024;-27
2022/08/22 02:08:19;;;;;;;0.40;0.20;;;24.00;65.50;;;;;;5042428;28;20026;-27
2022/08/22 02:11:12;;;;;;;0.30;0.30;;;24.00;65.60;;;;;;5046039;28;20363;-29
2022/08/22 02:13:53;;;;;;;0.00;0.00;;;24.00;65.70;;;;;;5020207;28;20037;-29
2022/08/22 02:16:32;;;;;;;0.63;0.20;;;24.00;65.70;;;;;;5011969;28;20035;-30
2022/08/22 02:19:13;;;;;;;0.90;0.35;;;24.00;65.60;;;;;;5029591;28;20033;-27
2022/08/22 02:21:59;;;;;;;0.40;0.20;;;24.00;65.80;;;;;;5040822;28;20262;-29
2022/08/22 02:24:28;;;;;;;1.35;0.10;;;24.00;65.90;;;;;;5028096;28;20021;-32
2022/08/22 02:27:02;;;;;;;0.50;0.10;;;23.90;65.90;;;;;;5039904;28;20526;-26
2022/08/22 02:29:30;;;;;;;0.20;0.10;;;24.00;65.90;;;;;;5041984;28;20039;-27
2022/08/22 02:32:03;;;;;;;0.10;0.10;;;24.00;65.90;;;;;;5026097;28;20041;-29
2022/08/22 02:34:43;;;;;;;0.52;0.13;;;23.90;66.70;;;;;;5017006;28;20037;-29
2022/08/22 02:37:33;;;;;;;0.15;0.15;;;23.90;66.00;;;;;;5031732;28;20147;-27
2022/08/22 02:40:25;;;;;;;0.50;0.20;;;23.90;66.00;;;;;;5031120;28;20083;-27
2022/08/22 02:43:19;;;;;;;0.10;0.10;;;23.90;66.20;;;;;;5045596;28;20026;-26
2022/08/22 02:45:51;;;;;;;0.10;0.10;;;23.90;66.30;;;;;;5032858;28;20021;-27
2022/08/22 02:48:30;;;;;;;0.10;0.10;;;23.90;66.30;;;;;;5045405;28;20094;-26
2022/08/22 02:51:14;;;;;;;0.10;0.10;;;23.90;66.20;;;;;;5029550;28;20462;-32
2022/08/22 02:53:52;;;;;;;0.15;0.10;;;23.90;66.30;;;;;;5031419;28;20060;-27
2022/08/22 02:56:21;;;;;;;0.13;0.13;;;23.90;66.20;;;;;;5028892;28;20030;-28
2022/08/22 02:59:08;;;;;;;0.32;0.10;;;23.90;66.50;;;;;;5047266;28;20078;-28
2022/08/22 03:01:44;;;;;;;0.10;0.10;;;23.80;66.40;;;;;;5048528;28;20035;-28
2022/08/22 03:04:16;;;;;;;0.20;0.20;;;23.80;66.70;;;;;;5046061;28;20257;-29
2022/08/22 03:06:44;;;;;;;0.20;0.17;;;23.80;66.70;;;;;;5046505;28;20028;-29
2022/08/22 03:09:13;;;;;;;0.10;0.10;;;23.80;66.60;;;;;;5043351;28;20051;-29
2022/08/22 03:11:38;;;;;;;0.25;0.15;;;23.80;66.60;;;;;;5042987;28;20033;-25
2022/08/22 03:14:47;;;;;;;0.35;0.20;;;23.80;66.70;;;;;;5033250;28;20071;-31
2022/08/22 03:17:21;;;;;;;0.20;0.20;;;23.80;66.80;;;;;;5041561;28;20127;-31
2022/08/22 03:19:56;;;;;;;0.28;0.20;;;23.70;66.90;;;;;;5030641;28;20400;-28
2022/08/22 03:22:28;;;;;;;0.10;0.10;;;23.70;66.90;;;;;;5043826;28;20721;-28
2022/08/22 03:25:02;;;;;;;0.15;0.15;;;23.70;66.90;;;;;;5031952;28;20504;-29
2022/08/22 03:27:38;;;;;;;0.20;0.20;;;23.70;66.90;;;;;;5012095;28;20074;-27
2022/08/22 03:30:06;;;;;;;0.10;0.10;;;23.80;67.60;;;;;;5031494;28;20040;-28
2022/08/22 03:32:46;;;;;;;0.10;0.10;;;23.80;66.80;;;;;;5044562;28;23825;-26
2022/08/22 03:35:22;;;;;;;1.63;0.28;;;23.80;66.70;;;;;;5042342;28;20044;-30
2022/08/22 03:37:48;;;;;;;0.30;0.30;;;23.80;66.70;;;;;;5046145;28;20061;-29
2022/08/22 03:40:52;;;;;;;0.22;0.10;;;23.80;66.70;;;;;;5029809;28;20124;-27
2022/08/22 03:43:42;;;;;;;0.17;0.17;;;23.80;66.70;;;;;;5044769;28;20404;-30
2022/08/22 03:46:32;;;;;;;1.55;0.20;;;23.80;66.70;;;;;;5045367;28;20445;-29
2022/08/22 03:49:04;;;;;;;0.20;0.20;;;23.80;66.70;;;;;;5038264;28;20492;-27
2022/08/22 03:52:08;;;;;;;0.20;0.20;;;23.80;66.90;;;;;;5046157;28;20746;-28
2022/08/22 03:54:43;;;;;;;0.90;0.30;;;23.70;66.90;;;;;;5029396;28;20033;-27
2022/08/22 03:57:29;;;;;;;0.15;0.15;;;23.70;67.10;;;;;;5028014;28;20115;-27
2022/08/22 03:59:55;;;;;;;0.10;0.10;;;23.70;66.90;;;;;;5022757;28;20029;-28
2022/08/22 04:02:26;;;;;;;0.30;0.30;;;23.80;66.90;;;;;;5044115;28;20556;-30
2022/08/22 04:05:30;;;;;;;0.30;0.30;;;23.80;66.70;;;;;;5041833;28;20033;-29
2022/08/22 04:08:08;;;;;;;0.38;0.20;;;23.80;66.90;;;;;;5042294;28;20224;-26
2022/08/22 04:11:06;;;;;;;0.20;0.20;;;23.70;67.00;;;;;;5042487;28;20025;-27
2022/08/22 04:14:09;;;;;;;0.35;0.28;;;23.70;67.70;;;;;;5045216;28;20028;-33
2022/08/22 04:16:43;;;;;;;0.28;0.28;;;23.70;66.90;;;;;;5044138;28;20029;-28
2022/08/22 04:19:09;;;;;;;0.10;0.10;;;23.70;67.00;;;;;;5012589;28;20104;-29
2022/08/22 04:22:12;;;;;;;0.20;0.20;;;23.70;67.00;;;;;;5043541;28;20108;-29
2022/08/22 04:25:16;;;;;;;0.50;0.40;;;23.70;67.00;;;;;;5045816;28;20021;-28
2022/08/22 04:27:54;;;;;;;0.30;0.30;;;23.80;67.00;;;;;;5044650;28;20036;-28
2022/08/22 04:30:30;;;;;;;2.63;0.60;;;23.80;66.90;;;;;;5041215;28;20127;-28
2022/08/22 04:33:20;;;;;;;2.30;0.50;;;23.80;67.00;;;;;;5014210;28;20106;-27
2022/08/22 04:36:16;;;;;;;0.95;0.60;;;23.80;66.70;;;;;;5040982;28;20033;-32
2022/08/22 04:38:58;;;;;;;2.30;0.70;;;23.80;66.70;;;;;;5002955;28;1103689;-25
2022/08/22 04:41:31;;;;;;;1.25;0.70;;;23.80;66.80;;;;;;5028832;28;20028;-27
2022/08/22 04:44:04;;;;;;;2.42;1.33;;;23.80;66.90;;;;;;5026723;28;20021;-29
2022/08/22 04:46:40;;;;;;;2.03;1.07;;;23.80;67.20;;;;;;5030922;28;20041;-27
2022/08/22 04:49:31;;;;;;;1.65;1.02;;;23.80;67.00;;;;;;5014920;28;20918;-28
2022/08/22 04:52:20;;;;;;;1.48;0.98;;;23.80;66.90;;;;;;5014859;28;20060;-26
2022/08/22 04:55:05;;;;;;;1.38;1.00;;;23.80;67.00;;;;;;5022893;28;20035;-28
2022/08/22 04:58:18;;;;;;;2.28;1.33;;;23.80;67.10;;;;;;5044328;28;20059;-29
2022/08/22 05:00:56;;;;;;;1.60;0.82;;;23.80;67.10;;;;;;4959319;28;20054;-27
2022/08/22 05:03:22;;;;;;;0.93;0.82;;;23.80;67.00;;;;;;4963929;28;20050;-25
2022/08/22 05:05:48;;;;;;;1.67;0.50;;;23.70;67.20;;;;;;4953095;28;20046;-30
2022/08/22 05:08:18;;;;;;;0.82;0.60;;;23.60;67.40;;;;;;4949147;28;20794;-29
2022/08/22 05:10:47;;;;;;;1.77;0.88;;;23.60;67.30;;;;;;4931986;28;20031;-26
2022/08/22 05:13:24;;;;;;;0.55;0.55;;;23.60;67.40;;;;;;4949649;28;20035;-28
2022/08/22 05:15:52;;;;;;;1.88;0.50;;;23.60;67.60;;;;;;4950960;28;20042;-28
2022/08/22 05:18:47;;;;;;;1.38;0.60;;;23.60;67.60;;;;;;4954459;28;20038;-31
2022/08/22 05:21:13;;;;;;;1.42;0.47;;;23.70;67.70;;;;;;4951438;28;20039;-27
2022/08/22 05:23:47;;;;;;;0.70;0.50;;;23.60;68.00;;;;;;4949663;28;20635;-26
2022/08/22 05:26:12;;;;;;;1.30;0.52;;;23.50;68.40;;;;;;4948531;28;20514;-29
2022/08/22 05:28:44;;;;;;;0.73;0.70;;;23.50;68.40;;;;;;4947420;28;20062;-30
2022/08/22 05:31:14;;;;;;;0.63;0.60;;;23.50;68.60;;;;;;4966275;28;20091;-28
2022/08/22 05:33:48;;;;;;;0.73;0.50;;;23.50;68.40;;;;;;5028147;28;20037;-26
2022/08/22 05:36:23;;;;;;;0.75;0.47;;;23.50;68.60;;;;;;5012951;28;20419;-29
2022/08/22 05:39:08;;;;;;;1.17;0.80;;;23.40;69.10;;;;;;5025163;28;20037;-28
2022/08/22 05:41:35;;;;;;;1.00;0.60;;;23.50;69.00;;;;;;5026983;28;20017;-27
2022/08/22 05:44:01;;;;;;;1.13;0.50;;;23.40;69.10;;;;;;5011326;28;20447;-29
2022/08/22 05:46:41;;;;;;;0.55;0.50;;;23.40;69.50;;;;;;5042569;28;20079;-28
2022/08/22 05:49:18;;;;;;;0.50;0.40;;;23.40;69.40;;;;;;5027539;28;20547;-29
2022/08/22 05:51:44;;;;;;;0.45;0.40;;;23.40;69.90;;;;;;5024153;28;20024;-27
2022/08/22 05:54:22;;;;;;;0.95;0.57;;;23.40;69.90;;;;;;5043009;28;20036;-27
2022/08/22 05:57:00;;;;;;;0.75;0.70;;;23.40;69.70;;;;;;5027549;28;20044;-29
2022/08/22 05:59:31;;;;;;;0.98;0.60;;;23.40;70.20;;;;;;5028123;28;20719;-28
2022/08/22 06:02:11;;;;;;;0.68;0.68;;;23.40;70.30;;;;;;5030507;28;20029;-29
2022/08/22 06:04:50;;;;;;;0.90;0.60;;;23.30;70.20;;;;;;5045955;28;20060;-28
2022/08/22 06:07:37;;;;;;;0.90;0.50;;;23.30;70.40;;;;;;5028017;28;20032;-28
2022/08/22 06:10:21;;;;;;;0.75;0.75;;;23.30;70.40;;;;;;5042924;28;20073;-28
2022/08/22 06:13:00;;;;;;;1.08;0.60;;;23.30;70.50;;;;;;5028336;28;20052;-27
2022/08/22 06:15:52;;;;;;;0.57;0.57;;;23.30;70.90;;;;;;5027437;28;20041;-27
2022/08/22 06:18:20;;;;;;;0.55;0.55;;;23.30;70.70;;;;;;5007785;28;20147;-28
2022/08/22 06:20:53;;;;;;;0.45;0.45;;;23.30;70.80;;;;;;5028463;28;20050;-28
2022/08/22 06:23:46;;;;;;;0.95;0.60;;;23.40;70.70;;;;;;5034925;28;20497;-28
2022/08/22 06:26:11;;;;;;;0.60;0.60;;;23.30;71.10;;;;;;5010299;28;20536;-30
2022/08/22 06:28:40;;;;;;;0.50;0.50;;;23.40;71.10;;;;;;5040587;28;20029;-28
2022/08/22 06:31:07;;;;;;;0.60;0.60;;;23.30;71.10;;;;;;5029054;28;20025;-27
2022/08/22 06:33:37;;;;;;;0.50;0.50;;;23.30;71.60;;;;;;5025109;28;20095;-31
2022/08/22 06:39:17;;;;;;;0.70;0.56;;;23.30;71.70;;;;;;4885854;28;10001465;-27
2022/08/22 06:41:49;;;;;;;0.73;0.60;;;23.30;71.80;;;;;;5038691;28;20261;-29
2022/08/22 06:44:19;;;;;;;1.08;0.60;;;23.30;71.60;;;;;;5040289;28;20767;-28
2022/08/22 06:46:45;;;;;;;0.75;0.75;;;23.30;71.70;;;;;;5008491;28;20044;-29
2022/08/22 06:49:10;;;;;;;0.45;0.43;;;23.30;72.00;;;;;;5020665;28;20078;-27
2022/08/22 06:51:36;;;;;;;0.77;0.77;;;23.30;71.90;;;;;;5037667;28;20034;-26
2022/08/22 06:54:04;;;;;;;1.00;0.63;;;23.30;72.20;;;;;;5007656;28;20054;-29
2022/08/22 06:56:37;;;;;;;0.50;0.50;;;23.30;71.90;;;;;;5017196;28;20127;-26
2022/08/22 06:59:07;;;;;;;0.70;0.70;;;23.30;72.60;;;;;;5004165;28;20503;-26
2022/08/22 07:01:34;;;;;;;0.80;0.80;;;23.30;72.30;;;;;;4688949;28;10000347;-27
2022/08/22 07:04:07;;;;;;;0.73;0.57;;;23.30;72.50;;;;;;5037315;28;20104;-27
2022/08/22 07:06:37;;;;;;;0.50;0.50;;;23.30;72.80;;;;;;5023391;28;20561;-28
2022/08/22 07:09:04;;;;;;;1.40;0.82;;;23.30;72.60;;;;;;5024454;28;20124;-29
2022/08/22 07:11:38;;;;;;;0.60;0.60;;;23.30;73.30;;;;;;5020630;28;20021;-26
2022/08/22 07:14:04;;;;;;;;;;;23.20;73.00;;;;;;5024989;28;20024;-28
2022/08/22 07:16:42;;;;;;;0.60;0.60;;;23.30;72.80;;;;;;5037135;28;19919;-29
2022/08/22 07:19:08;;;;;;;1.70;0.73;;;23.20;73.00;;;;;;5041295;28;20024;-29
2022/08/22 07:21:45;;;;;;;1.08;0.73;;;23.20;72.80;;;;;;5045479;28;20127;-30
2022/08/22 07:24:14;;;;;;;0.82;0.73;;;23.30;73.10;;;;;;5044254;28;20492;-29
2022/08/22 07:27:07;;;;;;;0.50;0.50;;;23.20;73.10;;;;;;5029248;28;20033;-30
2022/08/22 07:30:00;;;;;;;0.70;0.70;;;23.20;72.90;;;;;;5043328;28;20077;-27
2022/08/22 07:32:40;;;;;;;0.88;0.88;;;23.30;73.20;;;;;;5029470;28;20033;-28
2022/08/22 07:35:32;;;;;;;0.75;0.75;;;23.40;74.20;;;;;;5028013;28;20037;-27
2022/08/22 07:38:03;;;;;;;1.15;1.13;;;23.40;74.50;;;;;;5047615;28;20098;-27
2022/08/22 07:41:10;;;;;;;1.02;1.02;;;23.30;75.10;;;;;;5025338;28;20061;-26
2022/08/22 07:43:50;;;;;;;1.75;0.80;;;23.30;75.80;;;;;;5032929;28;20029;-27
2022/08/22 07:46:37;;;;;;;1.25;0.90;;;23.20;76.30;;;;;;5032376;28;20024;-31
2022/08/22 07:49:13;;;;;;;0.90;0.90;;;23.20;76.30;;;;;;5029266;28;20020;-29
2022/08/22 07:51:42;;;;;;;0.77;0.77;;;23.20;76.70;;;;;;5029862;28;20078;-31
2022/08/22 07:54:10;;;;;;;0.80;0.80;;;23.20;76.90;;;;;;5027340;28;20487;-28
2022/08/22 07:56:53;;;;;;;1.00;1.00;;;23.20;77.00;;;;;;5027187;28;20025;-26
2022/08/22 07:59:19;;;;;;;0.95;0.95;;;23.20;77.30;;;;;;5011135;28;20033;-28
2022/08/22 08:01:49;;;;;;;1.15;0.90;;;23.10;77.60;;;;;;5021727;28;20036;-26
2022/08/22 08:04:23;;;;;;;0.60;0.60;;;23.10;77.80;;;;;;5023981;28;20719;-27
2022/08/22 08:06:53;;;;;;;0.70;0.70;;;23.20;78.10;;;;;;5022905;28;20036;-27
2022/08/22 08:09:19;;;;;;;0.40;0.40;;;23.10;78.30;;;;;;5010006;28;20033;-28
2022/08/22 08:11:45;;;;;;;0.70;0.70;;;23.20;78.10;;;;;;5025951;28;20082;-29
2022/08/22 08:14:12;;;;;;;0.50;0.50;;;23.10;78.00;;;;;;5022505;28;20403;-32
2022/08/22 08:17:01;;;;;;;0.60;0.60;;;23.10;78.20;;;;;;5020954;28;20182;-32
2022/08/22 08:19:32;;;;;;;0.60;0.60;;;23.10;78.20;;;;;;5028911;28;20531;-34
2022/08/22 08:21:57;;;;;;;0.55;0.43;;;23.00;78.70;;;;;;5020945;28;20133;-37
2022/08/22 08:24:29;;;;;;;0.70;0.70;;;23.10;78.50;;;;;;5021826;28;20140;-35
2022/08/22 08:29:44;;;;;;;0.43;0.43;;;23.10;78.50;;;;;;5009801;28;20190;-28
2022/08/22 08:32:10;;;;;;;0.65;0.65;;;23.10;78.50;;;;;;5021924;28;20057;-31
2022/08/22 08:34:36;;;;;;;0.30;0.30;;;23.10;78.60;;;;;;5005433;28;20037;-37
2022/08/22 08:37:07;;;;;;;0.40;0.40;;;23.10;78.50;;;;;;5020523;28;20045;-33
2022/08/22 08:39:42;;;;;;;0.43;0.43;;;23.00;79.20;;;;;;5021767;28;20539;-34
2022/08/22 08:43:28;;;;;;;0.35;0.35;;;23.00;79.50;;;;;;5020157;28;20088;-35
2022/08/22 08:46:09;;;;;;;0.40;0.40;;;22.90;79.60;;;;;;4981482;28;20088;-34
2022/08/22 08:48:58;;;;;;;2.55;0.40;;;22.80;80.60;;;;;;4983886;28;20454;-33
2022/08/22 08:51:46;;;;;;;1.17;0.40;;;22.80;80.80;;;;;;4982753;28;20046;-33
2022/08/22 08:54:34;;;;;;;0.40;0.40;;;22.80;80.10;;;;;;4985080;28;20045;-35
2022/08/22 08:57:22;;;;;;;0.40;0.40;;;22.90;79.60;;;;;;4982856;28;20050;-32
2022/08/22 08:59:51;;;;;;;0.45;0.30;;;23.00;79.00;;;;;;4632345;28;10000040;-32
2022/08/22 09:02:40;;;;;;;1.45;0.30;;;23.10;78.80;;;;;;4979071;28;20046;-39
2022/08/22 09:05:26;;;;;;;0.25;0.25;;;23.10;78.70;;;;;;4965859;28;20481;-33
2022/08/22 09:08:13;;;;;;;0.40;0.40;;;23.20;78.70;;;;;;4982073;28;20038;-29
2022/08/22 09:10:44;;;;;;;0.68;0.25;;;23.20;78.80;;;;;;4980756;28;20118;-33
2022/08/22 09:13:41;;;;;;;0.20;0.20;;;23.20;78.90;;;;;;4977205;28;20101;-33
2022/08/22 09:16:25;;;;;;;0.85;0.30;;;23.20;78.90;;;;;;4992604;28;20156;-34
2022/08/22 09:19:02;;;;;;;0.20;0.20;;;23.30;78.90;;;;;;5037625;28;20041;-33
2022/08/22 09:21:47;;;;;;;0.28;0.20;;;23.30;79.10;;;;;;5037772;28;20053;-29
2022/08/22 09:24:12;;;;;;;0.63;0.25;;;23.30;79.40;;;;;;5016561;28;20045;-33
2022/08/22 09:26:48;;;;;;;0.45;0.20;;;23.20;79.20;;;;;;5037715;28;20095;-29
2022/08/22 09:29:34;;;;;;;0.20;0.20;;;23.30;79.30;;;;;;5016816;28;20051;-29
2022/08/22 09:32:23;;;;;;;0.22;0.22;;;23.20;79.60;;;;;;5040789;28;20049;-32
2022/08/22 09:35:06;;;;;;;0.20;0.20;;;23.30;79.50;;;;;;5037185;28;20546;-32
2022/08/22 09:37:56;;;;;;;0.20;0.20;;;23.40;79.20;;;;;;5023857;28;20077;-34
2022/08/22 09:40:29;;;;;;;0.10;0.10;;;23.30;79.10;;;;;;4999068;28;20407;-32
2022/08/22 09:42:57;;;;;;;0.10;0.10;;;23.40;78.90;;;;;;5016718;28;20041;-29
2022/08/22 09:45:32;;;;;;;0.30;0.30;;;23.50;78.60;;;;;;5020104;28;20033;-35
2022/08/22 09:48:06;;;;;;;0.57;0.10;;;23.50;78.60;;;;;;5031195;28;20471;-33
2022/08/22 09:50:34;;;;;;;0.20;0.20;;;23.50;78.50;;;;;;5017775;28;20583;-33
2022/08/22 09:53:20;;;;;;;0.10;0.10;;;23.50;78.40;;;;;;5021625;28;20599;-34
2022/08/22 09:55:53;;;;;;;0.10;0.10;;;23.50;78.40;;;;;;5018248;28;20111;-31
2022/08/22 09:58:57;;;;;;;1.33;0.15;;;23.50;79.00;;;;;;5017642;28;20053;-31
2022/08/22 10:01:34;;;;;;;0.10;0.10;;;23.50;78.00;;;;;;5013057;28;20068;-35
2022/08/22 10:04:20;;;;;;;0.20;0.20;;;23.50;78.00;;;;;;5015379;28;20077;-35
2022/08/22 10:07:03;;;;;;;0.20;0.20;;;23.50;78.10;;;;;;5019184;28;20033;-34
2022/08/22 10:10:07;;;;;;;0.43;0.30;;;23.50;78.10;;;;;;4665359;28;9999974;-33
2022/08/22 10:12:41;;;;;;;0.45;0.45;;;23.50;78.10;;;;;;5022831;28;20416;-31
2022/08/22 10:15:37;;;;;;;0.57;0.50;;;23.60;77.90;;;;;;5004619;28;20039;-31
2022/08/22 10:18:05;;;;;;;0.40;0.40;;;23.50;78.20;;;;;;5019449;28;20512;-32
2022/08/22 10:20:35;;;;;;;0.60;0.60;;;23.60;77.80;;;;;;5019994;28;20538;-31
2022/08/22 10:23:16;;;;;;;0.50;0.50;;;23.60;78.40;;;;;;4997234;28;20041;-31
2022/08/22 10:25:57;;;;;;;0.50;0.50;;;23.60;78.40;;;;;;5020529;28;20516;-38
2022/08/22 10:28:32;;;;;;;1.67;0.43;;;23.60;78.10;;;;;;5000459;28;20046;-32
2022/08/22 10:31:35;;;;;;;0.50;0.50;;;23.50;78.10;;;;;;4649527;28;10000460;-30
2022/08/22 10:34:08;;;;;;;0.30;0.30;;;23.50;78.20;;;;;;5008954;28;20034;-36
2022/08/22 10:36:44;;;;;;;0.98;0.45;;;23.60;78.30;;;;;;5010967;28;20041;-34
2022/08/22 10:39:12;;;;;;;0.13;0.13;;;23.60;77.50;;;;;;5011374;28;20132;-36
2022/08/22 10:42:11;;;;;;;0.20;0.20;;;23.60;78.20;;;;;;5016400;28;20037;-34
2022/08/22 10:45:06;;;;;;;1.70;0.20;;;23.70;77.00;;;;;;5013006;28;20042;-33
2022/08/22 10:47:37;;;;;;;;;;;23.70;77.70;;;;;;5000481;28;20037;-31
2022/08/22 10:50:16;;;;;;;0.32;0.30;;;23.80;77.40;;;;;;5016945;28;19913;-31
2022/08/22 10:52:47;;;;;;;2.20;0.30;;;23.80;76.20;;;;;;5015592;28;20072;-30
2022/08/22 10:55:25;;;;;;;0.20;0.20;;;23.80;77.10;;;;;;5016643;28;20295;-33
2022/08/22 10:58:11;;;;;;;0.30;0.30;;;23.80;76.70;;;;;;5002698;28;20041;-37
2022/08/22 11:00:44;;;;;;;0.30;0.30;;;23.90;77.00;;;;;;5020179;28;20041;-34
2022/08/22 11:03:33;;;;;;;3.40;0.40;;;23.90;77.00;;;;;;4997893;28;20042;-35
2022/08/22 11:06:00;;;;;;;0.20;0.17;;;23.80;77.00;;;;;;5022676;28;20072;-39
2022/08/22 11:08:52;;;;;;;0.10;0.10;;;23.80;76.50;;;;;;5020227;28;20147;-33
2022/08/22 11:11:33;;;;;;;0.10;0.10;;;23.90;76.20;;;;;;5018632;28;20055;-35
2022/08/22 11:14:23;;;;;;;0.20;0.20;;;23.90;76.50;;;;;;5022834;28;20596;-32
2022/08/22 11:17:24;;;;;;;0.20;0.20;;;23.80;76.40;;;;;;5021282;28;20189;-41
2022/08/22 11:20:33;;;;;;;0.20;0.20;;;23.90;76.20;;;;;;5002835;28;20060;-44
2022/08/22 11:23:26;;;;;;;0.10;0.10;;;23.90;75.20;;;;;;5018747;28;20116;-47
2022/08/22 11:26:15;;;;;;;0.20;0.20;;;23.90;74.70;;;;;;5023649;28;20045;-43
2022/08/22 11:29:06;;;;;;;0.30;0.20;;;24.00;74.80;;;;;;5024005;28;20045;-42
2022/08/22 11:31:39;;;;;;;0.10;0.10;;;24.00;74.70;;;;;;5023242;28;20059;-42
2022/08/22 11:34:22;;;;;;;0.20;0.20;;;23.90;75.00;;;;;;5019914;28;20056;-42
2022/08/22 11:37:12;;;;;;;1.50;0.20;;;23.90;74.90;;;;;;5022816;28;20067;-41
2022/08/22 11:40:05;;;;;;;0.38;0.10;;;23.90;75.10;;;;;;4962427;28;20766;-41
2022/08/22 11:42:48;;;;;;;0.35;0.30;;;24.10;73.70;;;;;;4991166;28;20049;-42
2022/08/22 11:45:22;;;;;;;1.17;0.20;;;24.10;73.90;;;;;;5000248;28;20038;-44
2022/08/22 11:48:22;;;;;;;0.10;0.10;;;24.10;73.90;;;;;;5003738;28;20041;-40
2022/08/22 11:51:08;;;;;;;0.30;0.13;;;24.10;73.40;;;;;;4939719;28;20058;-41
2022/08/22 11:53:49;;;;;;;0.25;0.20;;;24.20;73.40;;;;;;4943332;28;20648;-45
2022/08/22 11:56:31;;;;;;;0.35;0.20;;;24.20;73.10;;;;;;4944070;28;20082;-35
2022/08/22 11:59:15;;;;;;;0.50;0.20;;;24.20;72.70;;;;;;4948958;28;20047;-37
2022/08/22 12:01:42;;;;;;;;;;;24.20;73.30;;;;;;4937223;28;20058;-43
2022/08/22 12:04:35;;;;;;;0.22;0.20;;;24.20;73.00;;;;;;4938333;28;19926;-42
2022/08/22 12:07:14;;;;;;;0.13;0.13;;;24.20;72.70;;;;;;4930912;28;20043;-44
2022/08/22 12:09:39;;;;;;;0.20;0.20;;;24.20;72.60;;;;;;4935949;28;20109;-43
2022/08/22 12:12:26;;;;;;;0.20;0.20;;;24.30;73.10;;;;;;4940184;28;20391;-46
2022/08/22 12:14:56;;;;;;;0.20;0.20;;;24.30;72.60;;;;;;4937785;28;21463;-45
2022/08/22 12:17:42;;;;;;;0.20;0.20;;;24.30;72.50;;;;;;4936754;28;20738;-41
2022/08/22 12:20:11;;;;;;;0.20;0.20;;;24.30;71.90;;;;;;4940716;28;20047;-41
2022/08/22 12:22:42;;;;;;;0.20;0.20;;;24.30;72.20;;;;;;4941029;28;20047;-41
2022/08/22 12:25:38;;;;;;;0.20;0.20;;;24.30;72.30;;;;;;4938150;28;20046;-42
2022/08/22 12:28:34;;;;;;;0.32;0.30;;;24.40;72.00;;;;;;5000985;28;20040;-36
2022/08/22 12:31:02;;;;;;;0.22;0.22;;;24.40;71.80;;;;;;5016084;28;20066;-42
2022/08/22 12:34:06;;;;;;;0.20;0.20;;;24.40;71.80;;;;;;5014611;28;20038;-42
2022/08/22 12:36:32;;;;;;;0.30;0.30;;;24.50;71.50;;;;;;4932366;28;20066;-43
2022/08/22 12:39:18;;;;;;;0.30;0.30;;;24.50;71.20;;;;;;4938246;28;20047;-43
2022/08/22 12:42:05;;;;;;;0.20;0.20;;;24.60;71.10;;;;;;4915282;29;20062;-42
2022/08/22 12:44:48;;;;;;;1.00;0.20;;;24.60;71.00;;;;;;4916411;29;20039;-42
2022/08/22 12:47:28;;;;;;;0.10;0.10;;;24.60;70.80;;;;;;4916439;29;20088;-42
2022/08/22 12:50:19;;;;;;;0.57;0.20;;;24.70;70.80;;;;;;4919694;29;20138;-42
2022/08/22 12:52:54;;;;;;;0.30;0.20;;;24.70;70.40;;;;;;4921936;28;20215;-42
2022/08/22 12:55:23;;;;;;;0.20;0.20;;;24.70;69.90;;;;;;4576033;29;10000615;-42
2022/08/22 12:58:14;;;;;;;1.10;0.10;;;24.70;69.80;;;;;;4936792;28;20059;-42
2022/08/22 13:00:43;;;;;;;0.30;0.30;;;24.70;69.70;;;;;;4934496;28;20059;-46
2022/08/22 13:03:31;;;;;;;0.15;0.15;;;24.70;69.90;;;;;;4902978;29;20548;-41
2022/08/22 13:05:57;;;;;;;1.38;0.30;;;24.70;69.70;;;;;;4934069;28;20054;-41
2022/08/22 13:08:30;;;;;;;1.88;0.10;;;24.70;69.80;;;;;;4987568;28;20525;-43
2022/08/22 13:11:00;;;;;;;4.00;0.20;;;24.70;69.70;;;;;;4993588;28;20056;-41
2022/08/22 13:13:29;;;;;;;0.20;0.20;;;24.70;69.80;;;;;;4993239;28;22447;-42
2022/08/22 13:16:01;;;;;;;1.08;0.15;;;24.70;69.60;;;;;;4977495;28;20427;-44
2022/08/22 13:18:32;;;;;;;0.20;0.20;;;24.70;69.50;;;;;;4994697;28;20049;-40
2022/08/22 13:21:00;;;;;;;0.10;0.10;;;24.70;69.40;;;;;;4978452;28;20424;-41
2022/08/22 13:23:31;;;;;;;1.45;0.10;;;24.70;69.20;;;;;;4992797;28;21128;-42
2022/08/22 13:26:12;;;;;;;0.10;0.10;;;24.70;69.20;;;;;;4997832;28;20136;-44
2022/08/22 13:28:54;;;;;;;0.13;0.10;;;24.70;69.10;;;;;;4994116;28;20057;-41
2022/08/22 13:31:25;;;;;;;0.20;0.20;;;24.70;69.00;;;;;;4990654;28;20049;-42
2022/08/22 13:33:51;;;;;;;0.20;0.10;;;24.80;68.80;;;;;;4990979;28;20763;-41
2022/08/22 13:36:18;;;;;;;0.73;0.20;;;24.80;68.70;;;;;;4992064;28;20054;-42
2022/08/22 13:39:01;;;;;;;0.13;0.10;;;24.80;68.80;;;;;;4998985;28;20846;-42
2022/08/22 13:41:29;;;;;;;1.20;0.10;;;24.80;68.70;;;;;;5003462;28;20045;-43
2022/08/22 13:44:15;;;;;;;0.10;0.10;;;24.80;68.70;;;;;;5019669;28;20053;-43
2022/08/22 13:46:40;;;;;;;0.10;0.10;;;24.80;68.60;;;;;;5033298;28;20066;-43
2022/08/22 13:49:07;;;;;;;0.10;0.10;;;24.80;68.60;;;;;;5019681;28;20519;-42
2022/08/22 13:51:44;;;;;;;0.10;0.10;;;24.80;68.60;;;;;;5011777;28;20136;-42
2022/08/22 13:54:40;;;;;;;0.20;0.13;;;24.80;68.50;;;;;;5017085;28;20032;-42
2022/08/22 13:57:33;;;;;;;0.20;0.10;;;24.80;68.40;;;;;;5016920;28;20036;-42